Latest Weather Observations for Ceduna

IDS60801

Issued at 6:11 pm CST Thursday 9 April 2020 (issued every 10 minutes, with the page automatically refreshed every 10 minutes)

About weather observations | Map of weather stations | Latest weather observations for SA | Other Formats
Station Details ID: 018012 Name: CEDUNA AMO Lat: -32.13 Lon: 133.70 Height: 15.3 m
Data from the previous 72 hours. | See also: Recent months at Ceduna
Date/Time
CST
Temp
°C
App
Temp
°C
Dew
Point
°C
Rel
Hum
%
Delta-T
°C
Wind Press
QNH
hPa
Press
MSL
hPa
Rain since
9am
mm
Dir  Spd
km/h
Gust
km/h
Spd
kts
Gust
kts
09/06:00pm 20.0 16.9 12.3 61 4.3 S 20 26 11 14 1020.6 1020.6 0.0
09/05:30pm 21.1 17.4 11.4 54 5.4 S 22 30 12 16 1020.5 1020.5 0.0
09/05:00pm 22.1 17.8 10.9 49 6.2 S 24 28 13 15 1020.4 1020.4 0.0
09/04:30pm 22.6 17.8 10.4 46 6.7 S 26 30 14 16 1020.5 1020.5 0.0
09/04:00pm 23.5 18.9 10.9 45 7.0 S 26 32 14 17 1020.5 1020.5 0.0
09/03:30pm 24.0 20.0 11.7 46 6.9 S 24 30 13 16 1020.5 1020.5 0.0
09/03:00pm 24.7 20.9 9.8 39 8.2 S 20 24 11 13 1020.5 1020.5 0.0
09/02:30pm 25.1 21.5 9.8 38 8.4 S 19 24 10 13 1020.7 1020.7 0.0
09/02:00pm 24.3 20.7 9.8 40 7.9 SSW 19 22 10 12 1021.0 1021.0 0.0
09/01:30pm 24.4 21.2 9.9 40 7.9 SSW 17 20 9 11 1021.4 1021.4 0.0
09/01:00pm 24.3 21.1 9.8 40 7.9 SW 17 20 9 11 1021.8 1021.8 0.0
09/12:30pm 23.6 20.6 10.6 44 7.2 SW 17 20 9 11 1022.3 1022.3 0.0
09/12:00pm 22.9 20.0 11.0 47 6.6 SW 17 22 9 12 1022.9 1022.9 0.0
09/11:30am 23.2 21.6 11.6 48 6.5 SW 11 17 6 9 1023.5 1023.5 0.0
09/11:00am 24.0 22.4 10.3 42 7.6 N 9 15 5 8 1023.6 1023.6 0.0
09/10:30am 22.5 19.9 10.6 47 6.5 NE 15 19 8 10 1024.0 1024.0 0.0
09/10:00am 20.6 17.5 10.4 52 5.5 NNE 17 20 9 11 1024.2 1024.2 0.0
09/09:30am 18.9 15.1 11.2 61 4.2 ENE 22 28 12 15 1024.2 1024.2 0.0
09/09:00am 17.2 14.5 11.7 70 3.0 NE 17 22 9 12 1024.1 1024.1 0.0
09/08:30am 14.4 11.7 11.6 83 1.5 ENE 17 22 9 12 1024.1 1024.1 0.0
09/08:00am 11.8 9.1 10.5 92 0.7 E 15 19 8 10 1024.1 1024.1 0.0
09/07:30am 10.2 7.6 9.4 95 0.4 E 13 15 7 8 1024.0 1024.0 0.0
09/07:00am 9.7 6.2 8.9 95 0.4 E 17 19 9 10 1023.8 1023.8 0.0
09/06:30am 9.8 6.7 9.0 95 0.4 E 15 17 8 9 1023.7 1023.7 0.0
09/06:00am 9.8 6.4 9.0 95 0.4 E 17 19 9 10 1023.5 1023.5 0.0
09/05:30am 9.7 6.7 9.1 96 0.3 ESE 15 17 8 9 1023.5 1023.5 0.0
09/05:00am 9.8 7.1 9.0 95 0.4 E 13 15 7 8 1023.3 1023.3 0.0
09/04:30am 9.4 7.4 8.6 95 0.4 E 9 13 5 7 1023.3 1023.3 0.0
09/04:00am 9.5 7.0 8.4 93 0.5 E 11 13 6 7 1023.2 1023.2 0.0
09/03:30am 10.2 8.4 9.3 94 0.4 ESE 9 11 5 6 1023.2 1023.2 0.0
09/03:00am 10.1 7.8 9.0 93 0.5 E 11 13 6 7 1023.1 1023.1 0.0
09/02:30am 10.4 8.6 9.5 94 0.4 ESE 9 11 5 6 1023.3 1023.3 0.0
09/02:00am 10.4 8.2 9.3 93 0.5 ESE 11 13 6 7 1023.4 1023.4 0.0
09/01:30am 11.5 9.2 10.6 94 0.5 ESE 13 17 7 9 1023.4 1023.4 0.0
09/01:00am 11.0 8.5 9.8 92 0.6 ESE 13 13 7 7 1023.3 1023.3 0.0
09/12:30am 12.4 10.3 11.0 91 0.7 ESE 13 15 7 8 1023.4 1023.4 0.0
09/12:00am 13.3 11.0 11.9 91 0.7 ESE 15 17 8 9 1023.2 1023.2 0.0
 
Date/Time
CST
Temp
°C
App
Temp
°C
Dew
Point
°C
Rel
Hum
%
Delta-T
°C
Wind Press
QNH
hPa
Press
MSL
hPa
Rain since
9am
mm
Dir  Spd
km/h
Gust
km/h
Spd
kts
Gust
kts
08/11:30pm 14.1 12.5 12.8 92 0.7 SE 13 17 7 9 1023.2 1023.2 0.0
08/11:00pm 14.8 13.0 13.2 90 0.9 SSE 15 17 8 9 1023.3 1023.3 0.0
08/10:30pm 15.2 13.4 13.2 88 1.1 SSE 15 19 8 10 1023.2 1023.2 0.0
08/10:00pm 15.5 13.3 13.3 87 1.2 SSE 17 20 9 11 1023.3 1023.3 0.0
08/09:30pm 16.1 13.5 13.8 86 1.3 SSE 20 24 11 13 1023.3 1023.3 0.0
08/09:00pm 16.2 13.9 14.0 87 1.2 SSE 19 24 10 13 1023.1 1023.1 0.0
08/08:30pm 16.4 14.1 14.2 87 1.2 SSE 19 24 10 13 1023.0 1023.0 0.0
08/08:00pm 16.6 14.1 14.1 85 1.4 SSE 20 26 11 14 1022.8 1022.8 0.0
08/07:30pm 16.8 14.3 14.1 84 1.5 SSE 20 26 11 14 1022.4 1022.4 0.0
08/07:00pm 17.1 14.3 14.4 84 1.5 SSE 22 32 12 17 1021.8 1021.8 0.0
08/06:30pm 17.3 14.1 14.2 82 1.8 SSE 24 32 13 17 1021.7 1021.7 0.0
08/06:00pm 17.9 14.2 14.0 78 2.2 SSE 26 37 14 20 1021.5 1021.5 0.0
08/05:30pm 18.5 14.0 13.8 74 2.7 SSE 30 39 16 21 1021.3 1021.3 0.0
08/05:00pm 19.1 14.5 13.5 70 3.2 S 30 37 16 20 1021.3 1021.3 0.0
08/04:30pm 19.6 14.5 13.1 66 3.7 S 32 39 17 21 1021.2 1021.2 0.0
08/04:00pm 20.3 15.4 12.5 61 4.4 S 30 37 16 20 1021.2 1021.2 0.0
08/03:30pm 20.8 15.7 13.0 61 4.4 S 32 41 17 22 1021.1 1021.1 0.0
08/03:00pm 20.5 15.2 13.0 62 4.2 S 33 41 18 22 1021.2 1021.2 0.0
08/02:30pm 21.6 17.1 12.7 57 5.0 S 28 37 15 20 1021.3 1021.3 0.0
08/02:00pm 21.8 16.7 13.2 58 4.9 S 32 39 17 21 1021.4 1021.4 0.0
08/01:30pm 21.6 16.5 13.2 59 4.8 S 32 35 17 19 1021.7 1021.7 0.0
08/01:00pm 22.3 17.7 12.3 53 5.7 S 28 37 15 20 1022.1 1022.1 0.0
08/12:30pm 22.0 19.1 12.8 56 5.2 SSE 20 30 11 16 1022.5 1022.5 0.0
08/12:00pm 22.9 19.8 11.6 49 6.3 ESE 19 28 10 15 1022.9 1022.9 0.0
08/11:30am 22.1 18.5 11.8 52 5.8 ESE 22 32 12 17 1023.0 1023.0 0.0
08/11:00am 21.7 18.5 12.0 54 5.4 ESE 20 28 11 15 1023.5 1023.5 0.0
08/10:30am 20.9 17.6 11.5 55 5.2 ESE 20 28 11 15 1023.7 1023.7 0.0
08/10:00am 20.0 16.6 12.5 62 4.2 ESE 22 26 12 14 1023.8 1023.8 0.0
08/09:30am 18.7 15.9 13.1 70 3.1 ESE 20 26 11 14 1024.0 1024.0 0.0
08/09:00am 17.1 14.4 12.8 76 2.4 ESE 19 26 10 14 1024.0 1024.0 0.0
08/08:30am 15.7 12.7 12.5 81 1.7 ESE 20 26 11 14 1023.7 1023.7 0.0
08/08:00am 14.2 11.7 12.2 88 1.1 ESE 17 22 9 12 1023.3 1023.3 0.0
08/07:30am 13.3 11.0 11.7 90 0.8 SE 15 19 8 10 1022.8 1022.8 0.0
08/07:00am 13.0 11.0 11.4 90 0.8 SE 13 13 7 7 1022.4 1022.4 0.0
08/06:30am 13.5 11.2 11.7 89 1.0 SE 15 19 8 10 1022.1 1022.1 0.0
08/06:00am 13.8 11.1 11.8 88 1.1 SE 17 20 9 11 1021.9 1021.9 0.0
08/05:30am 13.7 11.0 11.8 88 1.0 SE 17 20 9 11 1021.7 1021.7 0.0
08/05:00am 13.2 11.5 11.3 88 1.0 SSE 11 13 6 7 1021.5 1021.5 0.0
08/04:30am 13.6 11.9 11.3 86 1.2 SE 11 13 6 7 1021.2 1021.2 0.0
08/04:00am 14.2 12.2 11.5 84 1.4 SE 13 17 7 9 1021.1 1021.1 0.0
08/03:30am 14.4 12.4 11.6 83 1.5 SE 13 17 7 9 1021.2 1021.2 0.0
08/03:00am 14.6 12.6 11.6 82 1.6 SE 13 19 7 10 1021.3 1021.3 0.0
08/02:30am 14.7 12.3 11.5 81 1.7 SE 15 17 8 9 1021.3 1021.3 0.0
08/02:00am 15.0 12.7 11.8 81 1.7 SE 15 20 8 11 1021.4 1021.4 0.0
08/01:30am 15.1 13.3 12.2 83 1.6 SE 13 17 7 9 1021.4 1021.4 0.0
08/01:00am 15.4 14.1 12.5 83 1.6 SE 11 15 6 8 1021.5 1021.5 0.0
08/12:30am 15.7 14.1 12.8 83 1.6 SE 13 19 7 10 1021.6 1021.6 0.0
08/12:00am 15.8 14.3 13.1 84 1.5 SE 13 19 7 10 1021.8 1021.8 0.0
 
Date/Time
CST
Temp
°C
App
Temp
°C
Dew
Point
°C
Rel
Hum
%
Delta-T
°C
Wind Press
QNH
hPa
Press
MSL
hPa
Rain since
9am
mm
Dir  Spd
km/h
Gust
km/h
Spd
kts
Gust
kts
07/11:30pm 15.9 14.1 13.2 84 1.5 SE 15 19 8 10 1022.0 1022.0 0.0
07/11:00pm 16.1 14.3 13.4 84 1.5 SE 15 19 8 10 1022.2 1022.2 0.0
07/10:30pm 16.3 13.6 13.4 83 1.6 SE 20 26 11 14 1022.4 1022.4 0.0
07/10:00pm 16.4 13.2 13.1 81 1.8 SSE 22 28 12 15 1022.3 1022.3 0.0
07/09:30pm 16.5 13.8 13.6 83 1.6 SSE 20 24 11 13 1022.4 1022.4 0.0
07/09:00pm 16.6 13.5 13.5 82 1.7 SSE 22 30 12 16 1022.3 1022.3 0.0
07/08:30pm 16.6 13.4 13.1 80 1.9 SSE 22 28 12 15 1022.3 1022.3 0.0
07/08:00pm 16.7 13.0 12.8 78 2.2 SSE 24 32 13 17 1022.1 1022.1 0.0
07/07:30pm 16.9 13.0 13.4 80 2.0 SSE 26 32 14 17 1021.8 1021.8 0.0
07/07:00pm 17.0 13.1 13.3 79 2.1 SSE 26 33 14 18 1021.6 1021.6 0.0
07/06:30pm 17.3 13.0 13.2 77 2.3 SSE 28 35 15 19 1021.2 1021.2 0.0
07/06:00pm 17.8 13.2 13.5 76 2.4 SSE 30 37 16 20 1020.8 1020.8 0.0
07/05:30pm 18.1 13.4 13.2 73 2.8 SSE 30 39 16 21 1020.7 1020.7 0.0
07/05:00pm 18.5 14.3 13.4 72 2.9 S 28 35 15 19 1020.7 1020.7 0.0
07/04:30pm 18.8 14.8 14.1 74 2.7 S 28 33 15 18 1020.7 1020.7 0.0
07/04:00pm 18.8 14.2 13.6 72 3.0 S 30 35 16 19 1020.7 1020.7 0.0
07/03:30pm 19.1 15.0 13.7 71 3.1 S 28 33 15 18 1020.8 1020.8 0.0
07/03:00pm 20.1 16.1 14.2 69 3.4 S 28 35 15 19 1020.9 1020.9 0.0
07/02:30pm 19.4 15.5 14.4 73 2.9 S 28 35 15 19 1020.8 1020.8 0.0
07/02:00pm 20.2 16.4 14.6 70 3.3 S 28 33 15 18 1021.0 1021.0 0.0
07/01:30pm 20.4 16.8 14.3 68 3.5 S 26 32 14 17 1021.4 1021.4 0.0
07/01:00pm 20.7 17.6 14.4 67 3.7 S 24 30 13 16 1021.9 1021.9 0.0
07/12:30pm 21.9 20.3 13.8 60 4.7 SSE 15 24 8 13 1022.3 1022.3 0.0
07/12:00pm 21.8 20.1 12.4 55 5.3 SE 13 22 7 12 1022.9 1022.9 0.0
07/11:30am 20.8 18.9 13.0 61 4.4 ESE 15 22 8 12 1023.2 1023.2 0.0
07/11:00am 19.4 16.8 13.3 68 3.5 ESE 19 26 10 14 1023.2 1023.2 0.0
07/10:30am 18.0 16.3 13.7 76 2.4 ESE 15 20 8 11 1023.5 1023.5 0.0
07/10:00am 16.4 14.3 13.5 83 1.6 ESE 17 20 9 11 1023.6 1023.6 0.0
07/09:30am 15.4 13.7 13.6 89 1.0 ESE 15 19 8 10 1023.7 1023.7 0.0
07/09:00am 14.2 13.1 13.1 93 0.6 ESE 11 15 6 8 1023.7 1023.7 0.0
07/08:30am 13.7 12.6 13.1 96 0.3 ESE 11 13 6 7 1023.6 1023.6 0.0
07/08:00am 13.1 11.4 12.6 97 0.3 ESE 13 17 7 9 1023.3 1023.3 0.0
07/07:30am 12.6 10.8 12.1 97 0.3 ESE 13 15 7 8 1022.9 1022.9 0.0
07/07:00am 12.5 10.7 12.0 97 0.3 SE 13 17 7 9 1022.6 1022.6 0.0
07/06:30am 12.3 10.8 11.8 97 0.3 ESE 11 15 6 8 1022.4 1022.4 0.0
07/06:00am 12.3 10.4 11.8 97 0.3 SE 13 17 7 9 1022.2 1022.2 0.0
07/05:30am 11.7 10.0 11.2 97 0.3 SSE 11 13 6 7 1022.2 1022.2 0.0
07/05:00am 10.9 9.4 10.4 97 0.3 SE 9 11 5 6 1021.8 1021.8 0.0
07/04:30am 10.6 8.2 10.0 96 0.3 ESE 13 13 7 7 1021.6 1021.6 0.0
07/04:00am 11.0 9.0 10.2 95 0.4 SE 11 13 6 7 1021.8 1021.8 0.0
07/03:30am 12.0 11.1 11.2 95 0.4 ESE 7 9 4 5 1021.9 1021.9 0.0
07/03:00am 12.6 11.1 11.8 95 0.4 ESE 11 13 6 7 1021.8 1021.8 0.0
07/02:30am 13.3 11.2 12.4 94 0.5 ESE 15 17 8 9 1021.8 1021.8 0.0
07/02:00am 13.6 12.0 12.8 95 0.4 SE 13 17 7 9 1021.9 1021.9 0.0
07/01:30am 13.1 11.4 12.3 95 0.4 ESE 13 15 7 8 1022.0 1022.0 0.0
07/01:00am 12.7 11.2 11.8 94 0.5 E 11 13 6 7 1022.2 1022.2 0.0
07/12:30am 13.4 12.0 12.1 92 0.7 SE 11 15 6 8 1022.3 1022.3 0.0
07/12:00am 14.2 12.6 12.8 91 0.8 SE 13 17 7 9 1022.5 1022.5 0.0
 
Date/Time
CST
Temp
°C
App
Temp
°C
Dew
Point
°C
Rel
Hum
%
Delta-T
°C
Wind Press
QNH
hPa
Press
MSL
hPa
Rain since
9am
mm
Dir  Spd
km/h
Gust
km/h
Spd
kts
Gust
kts
06/11:30pm 14.1 12.5 12.7 91 0.8 SE 13 15 7 8 1022.6 1022.6 0.0
06/11:00pm 14.0 12.3 12.6 91 0.8 SE 13 15 7 8 1022.8 1022.8 0.0
06/10:30pm 14.0 12.9 12.0 88 1.1 SSE 9 11 5 6 1022.9 1022.9 0.0
06/10:00pm 14.8 13.9 12.5 86 1.3 SE 9 9 5 5 1022.8 1022.8 0.0
06/09:30pm 16.2 14.8 13.5 84 1.5 SSE 13 17 7 9 1022.6 1022.6 0.0
06/09:00pm 16.6 14.5 13.7 83 1.6 SSE 17 20 9 11 1022.4 1022.4 0.0
06/08:30pm 16.9 14.3 13.8 82 1.7 SSE 20 26 11 14 1022.3 1022.3 0.0
06/08:00pm 16.9 14.6 14.0 83 1.6 SSE 19 24 10 13 1022.3 1022.3 0.0
06/07:30pm 17.0 14.3 13.5 80 2.0 SSE 20 24 11 13 1021.9 1021.9 0.0
06/07:00pm 17.2 14.6 13.7 80 2.0 S 20 28 11 15 1021.9 1021.9 0.0
06/06:30pm 17.4 14.5 13.9 80 2.0 S 22 28 12 15 1021.8 1021.8 0.0

Other formats

Comma delimited format used in spreadsheet applications
http://www.bom.gov.au/fwo/IDS60801/IDS60801.94653.axf

JavaScript Object Notation format (JSON) in row-major order
http://www.bom.gov.au/fwo/IDS60801/IDS60801.94653.json

Data quality

Most of these data are generated automatically and are frequently updated. Quality checks on data are not normally performed. It is possible for incorrect values to appear. Refer to information at About Latest Weather Observations and please check the disclaimer before using these data.